createdAt,value
2019-02-04T00:06:15.307Z,9.30
2019-02-04T00:09:13.049Z,8.80
2019-02-04T00:12:09.550Z,9.77
2019-02-04T00:14:54.894Z,8.17
2019-02-04T00:17:36.540Z,9.20
2019-02-04T00:20:34.173Z,8.40
2019-02-04T00:30:54.800Z,8.87
2019-02-04T00:33:29.165Z,8.37
2019-02-04T00:36:04.664Z,8.70
2019-02-04T00:38:47.568Z,7.10
2019-02-04T00:41:23.824Z,7.63
2019-02-04T00:44:10.326Z,7.20
2019-02-04T00:46:52.210Z,7.00
2019-02-04T00:49:25.530Z,6.60
2019-02-04T00:52:07.497Z,6.80
2019-02-04T00:54:56.587Z,7.47
2019-02-04T00:57:37.886Z,6.73
2019-02-04T01:00:32.610Z,6.07
2019-02-04T01:03:07.533Z,7.77
2019-02-04T01:05:38.341Z,8.40
2019-02-04T01:08:24.092Z,7.93
2019-02-04T01:11:01.697Z,8.80
2019-02-04T01:13:40.689Z,9.47
2019-02-04T01:16:23.966Z,9.27
2019-02-04T01:24:36.038Z,10.50
2019-02-04T01:29:45.325Z,10.10
2019-02-04T01:42:55.130Z,11.00
2019-02-04T01:49:38.930Z,11.33
2019-02-04T01:56:48.804Z,10.60
2019-02-04T02:00:35.494Z,10.00
2019-02-04T02:03:09.138Z,10.53
2019-02-04T02:06:14.397Z,10.47
2019-02-04T02:08:52.560Z,10.30
2019-02-04T02:11:40.591Z,10.40
2019-02-04T02:14:14.402Z,11.37
2019-02-04T02:17:05.404Z,11.53
2019-02-04T02:19:40.909Z,10.73
2019-02-04T02:22:14.462Z,11.07
2019-02-04T02:24:53.568Z,10.20
2019-02-04T02:27:25.580Z,9.90
2019-02-04T02:29:58.088Z,9.87
2019-02-04T02:32:43.617Z,10.40
2019-02-04T02:35:16.062Z,9.27
2019-02-04T02:37:51.615Z,9.43
2019-02-04T02:40:32.496Z,9.00
2019-02-04T02:43:06.331Z,7.73
2019-02-04T02:45:41.971Z,9.60
2019-02-04T02:48:17.716Z,7.73
2019-02-04T02:50:51.191Z,8.37
2019-02-04T02:53:25.027Z,8.30
2019-02-04T02:55:58.124Z,7.73
2019-02-04T02:58:29.361Z,8.70
2019-02-04T03:01:08.594Z,7.43
2019-02-04T03:03:57.531Z,7.50
2019-02-04T03:06:46.351Z,7.00
2019-02-04T03:09:22.381Z,7.27
2019-02-04T03:11:57.972Z,7.80
2019-02-04T03:14:46.985Z,6.80
2019-02-04T03:17:51.551Z,7.67
2019-02-04T03:20:32.770Z,7.50
2019-02-04T03:23:21.380Z,7.60
2019-02-04T03:26:12.328Z,8.90
2019-02-04T03:29:03.826Z,8.70
2019-02-04T03:31:55.767Z,8.03
2019-02-04T03:34:48.191Z,8.30
2019-02-04T03:37:38.526Z,8.90
2019-02-04T03:40:30.672Z,7.83
2019-02-04T03:43:19.868Z,8.30
2019-02-04T03:46:09.192Z,8.67
2019-02-04T03:49:01.541Z,8.20
2019-02-04T03:51:50.637Z,8.00
2019-02-04T03:54:41.261Z,7.80
2019-02-04T03:57:30.164Z,8.17
2019-02-04T04:00:24.759Z,7.40
2019-02-04T04:03:18.183Z,7.47
2019-02-04T04:06:09.216Z,7.63
2019-02-04T04:08:58.522Z,8.67
2019-02-04T04:11:47.005Z,7.97
2019-02-04T04:14:36.334Z,7.63
2019-02-04T04:17:25.936Z,8.80
2019-02-04T04:20:16.402Z,8.23
2019-02-04T04:23:05.236Z,8.60
2019-02-04T04:25:56.695Z,8.50
2019-02-04T04:28:45.874Z,9.10
2019-02-04T04:31:36.908Z,8.70
2019-02-04T04:34:28.127Z,8.43
2019-02-04T04:37:18.019Z,8.50
2019-02-04T04:40:09.735Z,8.33
2019-02-04T04:42:58.804Z,8.93
2019-02-04T04:45:48.630Z,8.47
2019-02-04T04:48:40.154Z,6.73
2019-02-04T04:51:29.129Z,7.20
2019-02-04T04:54:19.096Z,7.60
2019-02-04T04:57:08.107Z,7.73
2019-02-04T04:59:57.691Z,7.20
2019-02-04T05:02:46.980Z,7.20
2019-02-04T05:05:39.318Z,6.27
2019-02-04T05:08:29.170Z,7.70
2019-02-04T05:11:18.205Z,6.90
2019-02-04T05:14:07.474Z,6.90
2019-02-04T05:16:46.930Z,7.50
2019-02-04T05:19:20.040Z,7.17
2019-02-04T05:21:54.357Z,7.67
2019-02-04T05:24:29.526Z,7.67
2019-02-04T05:27:02.845Z,7.10
2019-02-04T05:29:40.859Z,7.70
2019-02-04T05:32:12.426Z,8.70
2019-02-04T05:34:44.617Z,7.30
2019-02-04T05:37:19.351Z,8.60
2019-02-04T05:39:51.492Z,7.90
2019-02-04T05:42:22.460Z,8.93
2019-02-04T05:45:05.017Z,7.60
2019-02-04T05:47:42.702Z,7.63
2019-02-04T05:50:33.725Z,8.57
2019-02-04T05:53:09.135Z,7.80
2019-02-04T05:55:56.538Z,7.67
2019-02-04T05:58:28.813Z,8.43
2019-02-04T06:01:18.391Z,8.03
2019-02-04T06:03:51.364Z,7.40
2019-02-04T06:06:22.847Z,8.20
2019-02-04T06:08:53.505Z,9.17
2019-02-04T06:11:24.621Z,8.30
2019-02-04T06:13:57.072Z,8.37
2019-02-04T06:16:30.848Z,8.60
2019-02-04T06:19:07.604Z,8.63
2019-02-04T06:21:57.557Z,8.60
2019-02-04T06:24:46.826Z,8.50
2019-02-04T06:27:23.407Z,8.67
2019-02-04T06:30:00.979Z,7.30
2019-02-04T06:32:46.117Z,6.83
2019-02-04T06:35:20.545Z,7.70
2019-02-04T06:38:01.546Z,8.30
2019-02-04T06:40:29.048Z,7.60
2019-02-04T06:43:02.246Z,8.10
2019-02-04T06:45:32.660Z,8.70
2019-02-04T06:48:12.108Z,9.40
2019-02-04T06:50:43.630Z,10.53
2019-02-04T06:53:18.670Z,24.03
2019-02-04T06:56:09.677Z,20.30
2019-02-04T06:58:47.076Z,10.63
2019-02-04T07:01:21.797Z,9.90
2019-02-04T07:04:03.815Z,9.40
2019-02-04T07:06:42.669Z,10.40
2019-02-04T07:09:18.687Z,10.20
2019-02-04T07:12:16.501Z,10.63
2019-02-04T07:14:58.392Z,11.27
2019-02-04T07:17:50.281Z,11.70
2019-02-04T07:20:27.829Z,13.73
2019-02-04T07:23:02.775Z,12.13
2019-02-04T07:25:37.284Z,11.13
2019-02-04T07:28:12.562Z,12.20
2019-02-04T07:30:47.348Z,10.67
2019-02-04T07:33:36.425Z,10.53
2019-02-04T07:36:10.153Z,10.40
2019-02-04T07:38:43.883Z,10.70
2019-02-04T07:41:39.074Z,11.80
2019-02-04T07:44:14.096Z,10.60
2019-02-04T07:46:45.994Z,11.63
2019-02-04T07:49:18.725Z,10.17
2019-02-04T07:52:07.931Z,9.20
2019-02-04T07:54:38.940Z,10.50
2019-02-04T07:57:12.026Z,10.70
2019-02-04T07:59:45.769Z,10.17
2019-02-04T08:02:19.349Z,11.10
2019-02-04T08:04:54.294Z,9.33
2019-02-04T08:07:27.162Z,10.13
2019-02-04T08:10:17.441Z,11.43
2019-02-04T08:13:01.900Z,9.67
2019-02-04T08:15:36.868Z,9.00
2019-02-04T08:18:18.939Z,9.30
2019-02-04T08:20:54.407Z,10.20
2019-02-04T08:23:30.982Z,9.27
2019-02-04T08:26:05.584Z,8.07
2019-02-04T08:28:46.529Z,9.00
2019-02-04T08:31:17.617Z,8.10
2019-02-04T08:33:50.502Z,9.67
2019-02-04T08:36:26.432Z,10.20
2019-02-04T08:38:59.916Z,8.53
2019-02-04T08:41:40.621Z,9.10
2019-02-04T08:44:24.820Z,8.20
2019-02-04T08:46:58.385Z,9.27
2019-02-04T08:49:30.485Z,9.00
2019-02-04T08:52:06.028Z,9.30
2019-02-04T08:54:41.954Z,9.10
2019-02-04T08:57:30.791Z,8.60
2019-02-04T09:00:19.548Z,9.27
2019-02-04T09:02:57.404Z,9.87
2019-02-04T09:05:31.976Z,11.97
2019-02-04T09:08:06.498Z,11.70
2019-02-04T09:10:37.868Z,11.53
2019-02-04T09:13:10.671Z,12.00
2019-02-04T09:15:44.741Z,12.00
2019-02-04T09:18:19.631Z,12.27
2019-02-04T09:20:50.405Z,12.30
2019-02-04T09:23:25.132Z,11.40
2019-02-04T09:26:21.986Z,11.80
2019-02-04T09:28:54.023Z,10.63
2019-02-04T09:31:25.196Z,11.00
2019-02-04T09:33:55.731Z,12.03
2019-02-04T09:36:26.624Z,12.60
2019-02-04T09:38:57.413Z,11.90
2019-02-04T09:41:35.469Z,10.63
2019-02-04T09:44:08.576Z,10.53
2019-02-04T09:46:45.476Z,8.47
2019-02-04T09:49:16.201Z,9.90
2019-02-04T09:51:50.255Z,11.97
2019-02-04T09:54:27.337Z,10.10
2019-02-04T09:57:04.083Z,9.97
2019-02-04T09:59:53.705Z,10.27
2019-02-04T10:02:30.943Z,9.50
2019-02-04T10:05:11.712Z,9.10
2019-02-04T10:07:48.833Z,8.80
2019-02-04T10:11:06.439Z,9.60
2019-02-04T10:13:56.830Z,8.13
2019-02-04T10:16:34.751Z,8.20
2019-02-04T10:19:12.524Z,6.73
2019-02-04T10:21:44.410Z,5.63
2019-02-04T10:24:24.351Z,6.50
2019-02-04T10:27:23.505Z,5.10
2019-02-04T10:29:59.634Z,5.57
2019-02-04T10:32:36.101Z,5.90
2019-02-04T10:35:16.564Z,5.17
2019-02-04T10:37:44.303Z,5.07
2019-02-04T10:40:20.168Z,5.50
2019-02-04T10:43:07.558Z,5.40
2019-02-04T10:45:44.209Z,5.17
2019-02-04T10:48:17.668Z,5.03
2019-02-04T10:50:48.988Z,5.00
2019-02-04T10:53:19.912Z,5.20
2019-02-04T10:55:57.470Z,4.60
2019-02-04T10:58:44.098Z,5.33
2019-02-04T11:01:18.483Z,4.83
2019-02-04T11:03:51.950Z,3.80
2019-02-04T11:06:37.068Z,5.10
2019-02-04T11:09:19.898Z,5.10
2019-02-04T11:11:55.648Z,4.73
2019-02-04T11:14:29.644Z,5.00
2019-02-04T11:17:06.560Z,4.53
2019-02-04T11:19:58.781Z,4.90
2019-02-04T11:22:29.283Z,5.70
2019-02-04T11:25:05.866Z,5.10
2019-02-04T11:27:37.771Z,5.20
2019-02-04T11:30:21.133Z,5.13
2019-02-04T11:33:13.076Z,5.87
2019-02-04T11:36:03.362Z,5.27
2019-02-04T11:38:36.938Z,4.83
2019-02-04T11:41:28.409Z,4.67
2019-02-04T11:44:09.772Z,5.20
2019-02-04T11:46:43.160Z,5.00
2019-02-04T11:49:32.422Z,4.70
2019-02-04T11:52:35.065Z,4.50
2019-02-04T11:55:11.257Z,4.90
2019-02-04T11:57:46.723Z,5.60
2019-02-04T12:00:36.087Z,7.37
2019-02-04T12:03:08.332Z,6.93
2019-02-04T12:05:39.546Z,7.50
2019-02-04T12:08:10.586Z,6.57
2019-02-04T12:10:45.669Z,6.80
2019-02-04T12:13:36.103Z,6.57
2019-02-04T12:16:24.870Z,7.60
2019-02-04T12:19:14.504Z,8.20
2019-02-04T12:21:45.098Z,7.20
2019-02-04T12:24:16.121Z,7.63
2019-02-04T12:26:53.571Z,6.30
2019-02-04T12:29:45.587Z,7.10
2019-02-04T12:32:20.153Z,6.73
2019-02-04T12:35:05.607Z,7.10
2019-02-04T12:37:42.321Z,6.47
2019-02-04T12:40:16.277Z,6.00
2019-02-04T12:42:50.331Z,6.87
2019-02-04T12:45:24.625Z,5.70
2019-02-04T12:48:00.915Z,6.13
2019-02-04T12:50:49.148Z,5.97
2019-02-04T12:53:32.718Z,6.17
2019-02-04T12:56:08.043Z,5.83
2019-02-04T12:58:55.246Z,5.10
2019-02-04T13:01:23.187Z,6.27
2019-02-04T13:04:04.345Z,5.70
2019-02-04T13:06:36.940Z,5.47
2019-02-04T13:09:26.722Z,5.03
2019-02-04T13:12:05.903Z,5.67
2019-02-04T13:14:42.708Z,5.40
2019-02-04T13:17:19.841Z,5.90
2019-02-04T13:19:56.080Z,5.70
2019-02-04T13:22:30.547Z,6.00
2019-02-04T13:25:09.028Z,6.20
2019-02-04T13:27:41.237Z,5.80
2019-02-04T13:30:22.944Z,6.03
2019-02-04T13:33:00.046Z,5.73
2019-02-04T13:35:43.675Z,6.97
2019-02-04T13:38:21.723Z,6.23
2019-02-04T13:41:12.889Z,5.80
2019-02-04T13:44:14.421Z,5.60
2019-02-04T13:46:55.169Z,5.90
2019-02-04T13:49:51.212Z,5.57
2019-02-04T13:52:25.432Z,5.43
2019-02-04T13:54:57.501Z,5.00
2019-02-04T13:57:28.931Z,5.97
2019-02-04T13:59:59.522Z,6.20
2019-02-04T14:02:30.003Z,6.13
2019-02-04T14:05:05.777Z,5.83
2019-02-04T14:07:36.777Z,5.80
2019-02-04T14:10:23.412Z,5.53
2019-02-04T14:12:58.228Z,5.30
2019-02-04T14:15:35.293Z,6.00
2019-02-04T14:18:09.914Z,5.73
2019-02-04T14:20:48.868Z,6.53
2019-02-04T14:23:22.043Z,6.97
2019-02-04T14:25:58.106Z,5.40
2019-02-04T14:28:31.673Z,5.63
2019-02-04T14:31:21.186Z,5.20
2019-02-04T14:34:13.238Z,4.87
2019-02-04T14:36:45.904Z,4.80
2019-02-04T14:39:19.203Z,4.50
2019-02-04T14:41:52.633Z,4.80
2019-02-04T14:44:59.497Z,4.47
2019-02-04T14:48:12.395Z,4.33
2019-02-04T14:51:10.393Z,5.10
2019-02-04T14:54:37.936Z,4.40
2019-02-04T14:57:29.554Z,4.80
2019-02-04T15:00:33.998Z,4.93
2019-02-04T15:03:38.687Z,5.00
2019-02-04T15:06:31.086Z,4.67
2019-02-04T15:09:48.720Z,4.57
2019-02-04T15:13:11.298Z,4.40
2019-02-04T15:15:59.045Z,4.23
2019-02-04T15:19:03.547Z,4.77
2019-02-04T15:22:18.247Z,4.63
2019-02-04T15:25:57.265Z,4.57
2019-02-04T15:29:16.978Z,4.87
2019-02-04T15:32:22.428Z,5.00
2019-02-04T15:35:38.236Z,4.60
2019-02-04T15:39:07.996Z,4.87
2019-02-04T15:42:49.436Z,5.43
2019-02-04T15:45:51.560Z,6.07
2019-02-04T15:48:49.315Z,5.97
2019-02-04T15:51:43.649Z,5.57
2019-02-04T15:54:19.302Z,5.13
2019-02-04T15:56:53.373Z,5.20
2019-02-04T15:59:30.063Z,4.30
2019-02-04T16:02:21.133Z,4.17
2019-02-04T16:04:56.276Z,5.20
2019-02-04T16:07:27.565Z,5.20
2019-02-04T16:10:00.240Z,4.47
2019-02-04T16:12:37.423Z,4.27
2019-02-04T16:15:11.851Z,5.07
2019-02-04T16:17:53.431Z,4.77
2019-02-04T16:20:27.136Z,4.60
2019-02-04T16:23:21.368Z,4.43
2019-02-04T16:25:58.818Z,5.23
2019-02-04T16:28:34.136Z,4.87
2019-02-04T16:31:13.985Z,4.90
2019-02-04T16:33:54.751Z,4.70
2019-02-04T16:36:27.203Z,5.40
2019-02-04T16:38:59.464Z,5.30
2019-02-04T16:41:31.197Z,5.27
2019-02-04T16:44:08.337Z,4.73
2019-02-04T16:46:43.062Z,3.87
2019-02-04T16:49:14.673Z,5.20
2019-02-04T16:51:46.446Z,5.20
2019-02-04T16:54:26.477Z,4.70
2019-02-04T16:56:59.496Z,5.13
2019-02-04T16:59:31.022Z,5.00
2019-02-04T17:02:01.960Z,4.53
2019-02-04T17:04:32.506Z,4.37
2019-02-04T17:07:05.656Z,4.70
2019-02-04T17:09:37.366Z,5.70
2019-02-04T17:12:09.149Z,4.50
2019-02-04T17:14:42.474Z,3.90
2019-02-04T17:17:18.578Z,4.83
2019-02-04T17:19:51.973Z,4.93
2019-02-04T17:22:27.772Z,4.77
2019-02-04T17:25:05.538Z,5.30
2019-02-04T17:27:54.860Z,5.57
2019-02-04T17:30:27.260Z,5.53
2019-02-04T17:32:57.835Z,5.47
2019-02-04T17:35:28.542Z,5.30
2019-02-04T17:37:59.858Z,5.60
2019-02-04T17:40:36.181Z,6.13
2019-02-04T17:43:11.100Z,5.90
2019-02-04T17:45:45.199Z,6.73
2019-02-04T17:48:20.419Z,7.37
2019-02-04T17:50:53.419Z,6.50
2019-02-04T17:53:34.214Z,5.07
2019-02-04T17:56:19.482Z,5.27
2019-02-04T17:58:56.767Z,5.97
2019-02-04T18:01:31.973Z,6.53
2019-02-04T18:04:09.531Z,5.57
2019-02-04T18:06:45.864Z,6.47
2019-02-04T18:09:16.933Z,6.07
2019-02-04T18:11:47.815Z,5.20
2019-02-04T18:14:19.572Z,6.50
2019-02-04T18:16:53.969Z,9.93
2019-02-04T18:19:31.987Z,6.90
2019-02-04T18:22:13.964Z,6.17
2019-02-04T18:24:58.334Z,5.90
2019-02-04T18:27:47.952Z,6.67
2019-02-04T18:30:37.571Z,7.17
2019-02-04T18:33:12.906Z,6.57
2019-02-04T18:35:45.017Z,6.00
2019-02-04T18:38:31.180Z,6.03
2019-02-04T18:41:09.975Z,8.20
2019-02-04T18:43:43.255Z,8.27
2019-02-04T18:46:24.632Z,25.83
2019-02-04T18:48:57.014Z,53.20
2019-02-04T18:51:32.348Z,17.90
2019-02-04T18:54:12.348Z,14.67
2019-02-04T18:56:47.282Z,8.10
2019-02-04T18:59:22.653Z,16.70
2019-02-04T19:01:55.006Z,9.70
2019-02-04T19:04:27.746Z,6.83
2019-02-04T19:07:01.989Z,6.90
2019-02-04T19:09:33.831Z,7.10
2019-02-04T19:12:08.510Z,6.50
2019-02-04T19:14:43.778Z,6.73
2019-02-04T19:17:21.952Z,6.70
2019-02-04T19:19:53.659Z,6.60
2019-02-04T19:22:34.725Z,7.20
2019-02-04T19:25:13.742Z,7.50
2019-02-04T19:27:48.390Z,7.43
2019-02-04T19:30:36.285Z,7.00
2019-02-04T19:33:13.713Z,6.97
2019-02-04T19:36:08.003Z,7.70
2019-02-04T19:38:48.630Z,8.70
2019-02-04T19:41:29.012Z,7.43
2019-02-04T19:44:08.294Z,8.40
2019-02-04T19:46:39.256Z,8.87
2019-02-04T19:49:11.648Z,7.93
2019-02-04T19:51:45.209Z,9.40
2019-02-04T19:54:21.849Z,9.00
2019-02-04T19:56:56.454Z,8.60
2019-02-04T19:59:29.922Z,8.77
2019-02-04T20:02:05.024Z,9.30
2019-02-04T20:04:36.398Z,9.60
2019-02-04T20:07:09.592Z,9.07
2019-02-04T20:09:47.460Z,9.40
2019-02-04T20:12:21.035Z,9.37
2019-02-04T20:14:59.935Z,9.50
2019-02-04T20:17:35.795Z,8.10
2019-02-04T20:20:13.635Z,8.80
2019-02-04T20:22:45.247Z,21.87
2019-02-04T20:25:32.389Z,10.30
2019-02-04T20:28:19.067Z,9.80
2019-02-04T20:31:05.937Z,9.87
2019-02-04T20:33:36.405Z,10.03
2019-02-04T20:36:07.862Z,9.30
2019-02-04T20:38:39.182Z,9.13
2019-02-04T20:41:14.550Z,9.40
2019-02-04T20:43:53.649Z,10.20
2019-02-04T20:46:28.784Z,11.23
2019-02-04T20:49:18.431Z,11.40
2019-02-04T20:51:51.932Z,10.77
2019-02-04T20:54:28.467Z,10.73
2019-02-04T20:57:05.933Z,11.77
2019-02-04T20:59:45.553Z,10.60
2019-02-04T21:02:20.124Z,10.90
2019-02-04T21:04:57.543Z,10.27
2019-02-04T21:07:30.358Z,11.03
2019-02-04T21:10:03.325Z,10.20
2019-02-04T21:12:41.044Z,10.87
2019-02-04T21:15:15.319Z,12.20
2019-02-04T21:17:49.305Z,11.13
2019-02-04T21:20:23.180Z,10.63
2019-02-04T21:22:55.965Z,11.27
2019-02-04T21:25:26.693Z,11.97
2019-02-04T21:27:57.633Z,11.50
2019-02-04T21:30:32.725Z,10.63
2019-02-04T21:33:08.247Z,11.00
2019-02-04T21:35:43.700Z,11.37
2019-02-04T21:38:17.730Z,19.97
2019-02-04T21:41:07.985Z,15.37
2019-02-04T21:44:00.510Z,13.33
2019-02-04T21:46:39.342Z,11.43
2019-02-04T21:49:19.475Z,11.37
2019-02-04T21:51:51.600Z,11.40
2019-02-04T21:54:27.194Z,11.17
2019-02-04T21:57:07.025Z,12.20
2019-02-04T21:59:48.826Z,11.53
2019-02-04T22:02:21.933Z,10.60
2019-02-04T22:04:57.463Z,11.50
2019-02-04T22:07:32.113Z,11.37
2019-02-04T22:10:20.823Z,11.47
2019-02-04T22:13:03.557Z,10.90
2019-02-04T22:15:55.393Z,11.70
2019-02-04T22:18:31.412Z,11.40
2019-02-04T22:21:07.569Z,11.00
2019-02-04T22:23:43.842Z,12.20
2019-02-04T22:26:16.256Z,11.10
2019-02-04T22:28:58.525Z,12.90
2019-02-04T22:31:30.237Z,11.10
2019-02-04T22:34:06.069Z,13.00
2019-02-04T22:36:38.716Z,11.83
2019-02-04T22:39:10.575Z,12.10
2019-02-04T22:41:45.729Z,12.67
2019-02-04T22:44:22.798Z,11.70
2019-02-04T22:46:58.742Z,11.63
2019-02-04T22:49:47.425Z,11.10
2019-02-04T22:52:37.249Z,12.90
2019-02-04T22:55:13.037Z,11.97
2019-02-04T22:58:09.647Z,42.30
2019-02-04T23:01:23.949Z,15.47
2019-02-04T23:03:54.888Z,13.00
2019-02-04T23:06:25.486Z,11.80
2019-02-04T23:08:56.868Z,11.57
2019-02-04T23:11:31.052Z,11.40
2019-02-04T23:14:02.452Z,12.20
2019-02-04T23:16:33.910Z,11.80
2019-02-04T23:19:06.441Z,14.10
2019-02-04T23:21:39.366Z,12.17
2019-02-04T23:24:11.102Z,12.27
2019-02-04T23:26:45.668Z,12.77
2019-02-04T23:29:16.799Z,12.63
2019-02-04T23:31:47.356Z,12.13
2019-02-04T23:34:18.235Z,11.90
2019-02-04T23:36:52.349Z,13.37
2019-02-04T23:39:23.118Z,12.30
2019-02-04T23:41:58.252Z,12.50
2019-02-04T23:44:28.316Z,12.97
2019-02-04T23:47:03.686Z,11.97
2019-02-04T23:49:34.227Z,12.23
2019-02-04T23:52:07.756Z,12.73
2019-02-04T23:54:38.716Z,12.50
2019-02-04T23:57:12.233Z,13.37
2019-02-04T23:59:45.124Z,13.07
